Terminal Aerodrome Forecast
Issued by NWS

Home | Current Version | Previous Version | Text Only | Print | Product List | Glossary On
Versions: 1 2 3 4 5 6 7 8 9 10 11 12 13 14 15 16 17 18 19 20 21 22 23
000
FTUS43 KICT 181733
TAFHUT
TAF
KHUT 181733Z 1818/1918 36003KT 6SM BR OVC006
      TEMPO 1818/1822 3SM BR OVC004
     FM190300 03004KT 4SM BR OVC005
     FM190800 VRB03KT 1SM BR OVC003
     FM191500 16004KT 4SM BR OVC004=

USA.gov is the U.S. government's official web portal to all federal, state and local government web resources and services.